Terminal Aerodrome Forecast
Issued by NWS

Home | Current Version | Previous Version | Text Only | Print | Product List | Glossary On
Versions: 1 2 3 4 5 6 7 8 9 10 11 12 13 14 15 16 17 18 19 20 21
000
FTUS43 KDMX 200520
TAFMCW
TAF
KMCW 200520Z 2006/2106 15014G21KT P6SM SCT210 WS020/16045KT
     FM201000 17013G19KT P6SM BKN030
     FM201300 22010KT P6SM SCT030
     FM201700 29010KT P6SM SCT050=

USA.gov is the U.S. government's official web portal to all federal, state and local government web resources and services.